createdAt,value
2019-05-21T00:02:03.623Z,99307.67
2019-05-21T00:04:33.133Z,99300.97
2019-05-21T00:07:02.606Z,99296.76
2019-05-21T00:09:32.237Z,99289.04
2019-05-21T00:12:01.792Z,99292.70
2019-05-21T00:14:31.501Z,99303.41
2019-05-21T00:17:01.006Z,99305.49
2019-05-21T00:19:30.409Z,99305.80
2019-05-21T00:21:59.831Z,99308.81
2019-05-21T00:24:29.280Z,99314.97
2019-05-21T00:26:58.719Z,99310.29
2019-05-21T00:30:03.900Z,99318.45
2019-05-21T00:33:09.003Z,99315.66
2019-05-21T00:36:14.989Z,99317.38
2019-05-21T00:39:20.309Z,99315.32
2019-05-21T00:42:00.567Z,99312.34
2019-05-21T00:44:30.504Z,99312.59
2019-05-21T00:46:59.940Z,99323.94
2019-05-21T00:49:29.529Z,99317.00
2019-05-21T00:52:07.079Z,99319.09
2019-05-21T00:54:30.302Z,99314.41
2019-05-21T00:56:59.808Z,99311.08
2019-05-21T00:59:29.377Z,99307.89
2019-05-21T01:01:58.872Z,99305.23
2019-05-21T01:04:28.393Z,99315.20
2019-05-21T01:06:57.999Z,99310.42
2019-05-21T01:09:27.500Z,99311.26
2019-05-21T01:11:57.111Z,99306.27
2019-05-21T01:14:26.663Z,99313.34
2019-05-21T01:16:56.205Z,99315.23
2019-05-21T01:19:25.875Z,99314.02
2019-05-21T01:21:55.521Z,99313.50
2019-05-21T01:24:25.111Z,99321.73
2019-05-21T01:26:54.574Z,99322.64
2019-05-21T01:29:24.197Z,99320.07
2019-05-21T01:31:53.742Z,99321.11
2019-05-21T01:34:23.269Z,99321.20
2019-05-21T01:36:52.859Z,99320.89
2019-05-21T01:39:22.325Z,99323.50
2019-05-21T01:41:51.916Z,99327.01
2019-05-21T01:44:21.464Z,99334.36
2019-05-21T01:46:50.861Z,99341.72
2019-05-21T01:49:20.490Z,99340.44
2019-05-21T01:51:50.049Z,99335.86
2019-05-21T01:54:19.635Z,99332.61
2019-05-21T01:56:49.270Z,99328.30
2019-05-21T01:59:18.840Z,99327.58
2019-05-21T02:01:48.421Z,99336.48
2019-05-21T02:04:17.919Z,99335.61
2019-05-21T02:06:49.397Z,99330.00
2019-05-21T02:09:18.917Z,99326.11
2019-05-21T02:11:48.454Z,99331.17
2019-05-21T02:14:17.986Z,99329.06
2019-05-21T02:16:47.466Z,99331.82
2019-05-21T02:19:16.939Z,99332.29
2019-05-21T02:21:46.581Z,99332.23
2019-05-21T02:24:16.073Z,99334.61
2019-05-21T02:26:45.644Z,99341.53
2019-05-21T02:29:15.199Z,99339.91
2019-05-21T02:31:44.800Z,99333.81
2019-05-21T02:34:14.212Z,99334.69
2019-05-21T02:36:43.660Z,99343.88
2019-05-21T02:39:13.085Z,99342.25
2019-05-21T02:41:42.504Z,99342.12
2019-05-21T02:44:12.070Z,99351.02
2019-05-21T02:46:41.602Z,99352.16
2019-05-21T02:49:11.068Z,99352.46
2019-05-21T02:51:40.669Z,99356.59
2019-05-21T02:54:10.156Z,99364.50
2019-05-21T02:56:39.605Z,99363.97
2019-05-21T02:59:09.529Z,99362.62
2019-05-21T03:01:50.884Z,99367.61
2019-05-21T03:04:20.414Z,99374.38
2019-05-21T03:06:50.020Z,99374.07
2019-05-21T03:09:19.561Z,99378.13
2019-05-21T03:11:49.002Z,99377.70
2019-05-21T03:14:18.413Z,99377.15
2019-05-21T03:16:47.884Z,99376.87
2019-05-21T03:19:17.307Z,99377.15
2019-05-21T03:21:46.788Z,99370.16
2019-05-21T03:24:16.382Z,99381.92
2019-05-21T03:26:45.930Z,99378.28
2019-05-21T03:29:15.363Z,99381.36
2019-05-21T03:31:44.881Z,99381.20
2019-05-21T03:34:14.437Z,99394.84
2019-05-21T03:36:43.856Z,99401.29
2019-05-21T03:39:13.471Z,99397.22
2019-05-21T03:41:42.902Z,99397.84
2019-05-21T03:44:12.502Z,99400.05
2019-05-21T03:46:42.113Z,99405.13
2019-05-21T03:49:11.647Z,99409.75
2019-05-21T03:51:41.214Z,99406.51
2019-05-21T03:54:10.707Z,99415.09
2019-05-21T03:56:40.134Z,99401.63
2019-05-21T03:59:09.678Z,99409.31
2019-05-21T04:01:39.155Z,99405.55
2019-05-21T04:04:08.603Z,99406.98
2019-05-21T04:06:51.200Z,99408.44
2019-05-21T04:09:09.501Z,99408.85
2019-05-21T04:11:38.945Z,99414.55
2019-05-21T04:14:08.607Z,99420.57
2019-05-21T04:16:59.602Z,99420.26
2019-05-21T04:19:33.185Z,99417.52
2019-05-21T04:22:02.781Z,99420.75
2019-05-21T04:24:32.398Z,99423.01
2019-05-21T04:27:01.842Z,99423.82
2019-05-21T04:29:31.282Z,99435.04
2019-05-21T04:32:00.721Z,99431.57
2019-05-21T04:34:30.252Z,99439.77
2019-05-21T04:37:09.854Z,99440.64
2019-05-21T04:39:30.976Z,99444.75
2019-05-21T04:42:00.488Z,99442.07
2019-05-21T04:44:30.011Z,99442.38
2019-05-21T04:46:59.539Z,99452.77
2019-05-21T04:49:29.017Z,99448.83
2019-05-21T04:51:58.593Z,99446.81
2019-05-21T04:54:28.179Z,99443.17
2019-05-21T04:56:57.681Z,99447.37
2019-05-21T04:59:27.232Z,99449.38
2019-05-21T05:01:56.727Z,99449.38
2019-05-21T05:04:26.297Z,99450.34
2019-05-21T05:06:55.760Z,99448.12
2019-05-21T05:09:25.356Z,99457.36
2019-05-21T05:11:54.876Z,99454.00
2019-05-21T05:14:24.441Z,99448.78
2019-05-21T05:16:53.899Z,99448.12
2019-05-21T05:19:23.422Z,99447.85
2019-05-21T05:21:52.974Z,99449.56
2019-05-21T05:24:22.496Z,99451.08
2019-05-21T05:26:52.013Z,99449.34
2019-05-21T05:29:21.478Z,99455.66
2019-05-21T05:31:51.053Z,99455.62
2019-05-21T05:34:20.521Z,99448.22
2019-05-21T05:36:50.031Z,99458.91
2019-05-21T05:39:19.660Z,99458.53
2019-05-21T05:41:49.074Z,99455.45
2019-05-21T05:44:18.651Z,99459.80
2019-05-21T05:46:48.163Z,99455.11
2019-05-21T05:49:25.795Z,99450.89
2019-05-21T05:51:55.259Z,99456.56
2019-05-21T05:54:24.685Z,99463.02
2019-05-21T05:56:54.143Z,99462.66
2019-05-21T05:59:23.767Z,99466.84
2019-05-21T06:01:53.307Z,99460.56
2019-05-21T06:04:22.665Z,99456.46
2019-05-21T06:06:52.222Z,99458.33
2019-05-21T06:09:21.790Z,99460.00
2019-05-21T06:11:51.376Z,99460.11
2019-05-21T06:14:20.869Z,99459.09
2019-05-21T06:16:50.415Z,99468.30
2019-05-21T06:19:19.959Z,99461.80
2019-05-21T06:21:49.532Z,99465.91
2019-05-21T06:24:18.958Z,99467.50
2019-05-21T06:26:48.500Z,99467.42
2019-05-21T06:29:18.141Z,99467.37
2019-05-21T06:31:47.625Z,99474.81
2019-05-21T06:34:17.106Z,99478.99
2019-05-21T06:36:46.661Z,99477.02
2019-05-21T06:39:16.087Z,99479.21
2019-05-21T06:41:45.588Z,99481.11
2019-05-21T06:44:15.072Z,99482.59
2019-05-21T06:46:44.638Z,99480.38
2019-05-21T06:49:14.268Z,99478.77
2019-05-21T06:51:43.777Z,99476.55
2019-05-21T06:54:13.428Z,99474.58
2019-05-21T06:56:42.844Z,99472.09
2019-05-21T06:59:12.495Z,99476.69
2019-05-21T07:01:42.092Z,99468.88
2019-05-21T07:04:11.584Z,99467.32
2019-05-21T07:06:44.531Z,99467.00
2019-05-21T07:09:12.550Z,99462.88
2019-05-21T07:11:42.121Z,99468.73
2019-05-21T07:14:11.558Z,99469.19
2019-05-21T07:16:41.182Z,99474.67
2019-05-21T07:19:10.705Z,99471.62
2019-05-21T07:21:40.135Z,99472.46
2019-05-21T07:24:09.580Z,99470.94
2019-05-21T07:26:39.096Z,99466.75
2019-05-21T07:29:08.562Z,99464.87
2019-05-21T07:31:38.158Z,99469.13
2019-05-21T07:34:07.740Z,99468.72
2019-05-21T07:36:37.205Z,99465.81
2019-05-21T07:39:07.551Z,99465.08
2019-05-21T07:41:37.102Z,99474.50
2019-05-21T07:44:06.565Z,99468.25
2019-05-21T07:46:39.251Z,99470.91
2019-05-21T07:49:07.461Z,99468.11
2019-05-21T07:51:36.925Z,99469.53
2019-05-21T07:54:06.441Z,99469.41
2019-05-21T07:56:36.046Z,99465.70
2019-05-21T07:59:05.634Z,99468.91
2019-05-21T08:01:35.082Z,99468.47
2019-05-21T08:04:04.588Z,99469.85
2019-05-21T08:06:34.167Z,99466.49
2019-05-21T08:09:13.301Z,99476.50
2019-05-21T08:11:35.192Z,99474.64
2019-05-21T08:14:04.734Z,99475.86
2019-05-21T08:16:34.272Z,99470.54
2019-05-21T08:19:03.695Z,99473.93
2019-05-21T08:21:33.236Z,99469.90
2019-05-21T08:24:02.749Z,99472.42
2019-05-21T08:26:32.289Z,99464.84
2019-05-21T08:29:01.861Z,99467.77
2019-05-21T08:31:31.410Z,99471.22
2019-05-21T08:34:00.828Z,99466.67
2019-05-21T08:36:31.123Z,99469.23
2019-05-21T08:39:00.748Z,99462.06
2019-05-21T08:41:30.446Z,99453.98
2019-05-21T08:44:00.019Z,99455.97
2019-05-21T08:46:29.443Z,99455.97
2019-05-21T08:48:58.929Z,99455.28
2019-05-21T08:51:28.468Z,99447.00
2019-05-21T08:53:58.053Z,99446.59
2019-05-21T08:56:27.683Z,99445.28
2019-05-21T08:58:57.154Z,99444.41
2019-05-21T09:01:26.776Z,99440.88
2019-05-21T09:03:56.304Z,99448.24
2019-05-21T09:06:25.846Z,99443.97
2019-05-21T09:08:55.308Z,99444.54
2019-05-21T09:11:24.882Z,99447.24
2019-05-21T09:13:54.531Z,99441.63
2019-05-21T09:16:24.025Z,99436.78
2019-05-21T09:18:53.583Z,99444.28
2019-05-21T09:21:23.182Z,99447.81
2019-05-21T09:23:52.780Z,99438.65
2019-05-21T09:26:22.228Z,99431.95
2019-05-21T09:28:51.876Z,99438.26
2019-05-21T09:31:21.319Z,99440.20
2019-05-21T09:33:50.901Z,99439.20
2019-05-21T09:36:20.352Z,99441.32
2019-05-21T09:38:49.845Z,99439.36
2019-05-21T09:41:19.283Z,99436.92
2019-05-21T09:43:48.721Z,99443.14
2019-05-21T09:46:18.172Z,99446.05
2019-05-21T09:48:47.654Z,99443.92
2019-05-21T09:51:20.021Z,99441.22
2019-05-21T09:53:48.507Z,99433.52
2019-05-21T09:56:33.423Z,99439.73
2019-05-21T09:59:16.178Z,99437.26
2019-05-21T10:01:48.585Z,99433.40
2019-05-21T10:04:18.170Z,99430.52
2019-05-21T10:06:47.668Z,99424.80
2019-05-21T10:09:18.767Z,99420.82
2019-05-21T10:11:48.268Z,99418.11
2019-05-21T10:14:17.778Z,99411.83
2019-05-21T10:16:47.255Z,99414.39
2019-05-21T10:19:16.741Z,99418.48
2019-05-21T10:21:46.251Z,99420.47
2019-05-21T10:24:15.756Z,99420.47
2019-05-21T10:26:45.320Z,99429.25
2019-05-21T10:29:14.735Z,99430.20
2019-05-21T10:31:44.366Z,99430.08
2019-05-21T10:34:13.961Z,99427.06
2019-05-21T10:36:43.635Z,99425.73
2019-05-21T10:39:13.266Z,99422.35
2019-05-21T10:41:45.953Z,99409.52
2019-05-21T10:44:14.153Z,99410.33
2019-05-21T10:46:43.571Z,99410.33
2019-05-21T10:49:13.118Z,99408.62
2019-05-21T10:51:42.550Z,99408.58
2019-05-21T10:54:12.213Z,99415.33
2019-05-21T10:56:48.133Z,99402.60
2019-05-21T10:59:13.072Z,99405.69
2019-05-21T11:02:04.584Z,99412.26
2019-05-21T11:04:39.195Z,99409.34
2019-05-21T11:07:09.611Z,99419.41
2019-05-21T11:09:39.100Z,99408.55
2019-05-21T11:12:09.025Z,99410.52
2019-05-21T11:14:38.627Z,99402.03
2019-05-21T11:17:10.570Z,99406.58
2019-05-21T11:19:40.015Z,99399.39
2019-05-21T11:22:09.504Z,99394.63
2019-05-21T11:24:39.046Z,99394.41
2019-05-21T11:27:08.626Z,99388.42
2019-05-21T11:29:38.210Z,99385.91
2019-05-21T11:32:07.748Z,99382.64
2019-05-21T11:34:37.209Z,99380.16
2019-05-21T11:37:06.783Z,99383.75
2019-05-21T11:39:36.283Z,99380.36
2019-05-21T11:42:05.821Z,99382.59
2019-05-21T11:44:35.243Z,99385.66
2019-05-21T11:47:04.738Z,99383.59
2019-05-21T11:49:34.210Z,99377.25
2019-05-21T11:52:03.758Z,99378.27
2019-05-21T11:54:33.173Z,99373.00
2019-05-21T11:57:02.588Z,99367.52
2019-05-21T11:59:32.030Z,99370.69
2019-05-21T12:02:01.476Z,99367.78
2019-05-21T12:04:30.930Z,99371.02
2019-05-21T12:07:03.240Z,99361.91
2019-05-21T12:09:31.721Z,99361.42
2019-05-21T12:12:01.376Z,99361.86
2019-05-21T12:14:30.860Z,99350.59
2019-05-21T12:17:00.464Z,99365.70
2019-05-21T12:19:29.983Z,99386.16
2019-05-21T12:21:59.448Z,99404.09
2019-05-21T12:24:28.944Z,99395.95
2019-05-21T12:26:58.491Z,99356.84
2019-05-21T12:29:27.989Z,99351.98
2019-05-21T12:31:57.540Z,99371.62
2019-05-21T12:34:27.113Z,99385.28
2019-05-21T12:36:56.646Z,99374.46
2019-05-21T12:39:26.117Z,99360.50
2019-05-21T12:41:55.704Z,99357.01
2019-05-21T12:44:25.235Z,99355.80
2019-05-21T12:46:54.669Z,99346.66
2019-05-21T12:49:24.135Z,99342.48
2019-05-21T12:51:53.608Z,99332.16
2019-05-21T12:54:23.217Z,99326.41
2019-05-21T12:56:52.847Z,99327.49
2019-05-21T12:59:22.459Z,99319.92
2019-05-21T13:01:51.963Z,99309.98
2019-05-21T13:04:21.621Z,99320.27
2019-05-21T13:06:51.064Z,99317.75
2019-05-21T13:09:32.155Z,99324.61
2019-05-21T13:11:51.982Z,99309.53
2019-05-21T13:14:21.519Z,99307.63
2019-05-21T13:16:51.271Z,99303.27
2019-05-21T13:19:20.859Z,99304.23
2019-05-21T13:21:50.450Z,99309.80
2019-05-21T13:24:20.081Z,99312.36
2019-05-21T13:26:49.575Z,99316.43
2019-05-21T13:29:19.201Z,99316.13
2019-05-21T13:31:48.722Z,99316.28
2019-05-21T13:34:18.226Z,99308.64
2019-05-21T13:36:47.698Z,99305.52
2019-05-21T13:39:17.347Z,99301.75
2019-05-21T13:41:46.923Z,99339.16
2019-05-21T13:44:17.127Z,99419.16
2019-05-21T13:46:44.806Z,99391.42
2019-05-21T13:49:14.266Z,99519.41
2019-05-21T13:51:43.683Z,99450.98
2019-05-21T13:54:13.119Z,99411.99
2019-05-21T13:56:42.554Z,99368.83
2019-05-21T13:59:12.213Z,99375.93
2019-05-21T14:01:41.890Z,99389.33
2019-05-21T14:04:11.419Z,99369.48
2019-05-21T14:06:40.869Z,99359.11
2019-05-21T14:09:10.290Z,99361.77
2019-05-21T14:11:39.752Z,99367.95
2019-05-21T14:14:09.165Z,99372.50
2019-05-21T14:16:38.639Z,99385.38
2019-05-21T14:19:08.052Z,99389.54
2019-05-21T14:21:37.546Z,99401.91
2019-05-21T14:24:07.007Z,99385.64
2019-05-21T14:26:36.433Z,99374.70
2019-05-21T14:29:05.902Z,99370.39
2019-05-21T14:31:35.359Z,99364.27
2019-05-21T14:34:04.975Z,99363.38
2019-05-21T14:36:34.500Z,99377.36
2019-05-21T14:39:06.564Z,99383.23
2019-05-21T14:41:36.242Z,99389.25
2019-05-21T14:44:05.847Z,99399.61
2019-05-21T14:46:35.495Z,99418.91
2019-05-21T14:49:04.919Z,99419.78
2019-05-21T14:51:34.360Z,99421.27
2019-05-21T14:54:04.798Z,99428.53
2019-05-21T14:56:34.243Z,99436.56
2019-05-21T14:59:03.694Z,99436.66
2019-05-21T15:01:33.105Z,99438.00
2019-05-21T15:04:02.610Z,99450.17
2019-05-21T15:06:32.052Z,99457.49
2019-05-21T15:09:01.529Z,99455.61
2019-05-21T15:11:30.964Z,99450.38
2019-05-21T15:14:00.493Z,99460.69
2019-05-21T15:16:29.962Z,99463.33
2019-05-21T15:18:59.504Z,99459.37
2019-05-21T15:21:39.936Z,99452.92
2019-05-21T15:24:09.690Z,99450.73
2019-05-21T15:26:39.349Z,99449.16
2019-05-21T15:29:08.832Z,99449.77
2019-05-21T15:31:38.255Z,99454.03
2019-05-21T15:34:07.705Z,99452.08
2019-05-21T15:36:37.125Z,99444.98
2019-05-21T15:39:07.972Z,99437.58
2019-05-21T15:41:37.401Z,99422.70
2019-05-21T15:44:06.835Z,99427.77
2019-05-21T15:46:47.769Z,99430.86
2019-05-21T15:49:07.450Z,99445.16
2019-05-21T15:51:36.931Z,99447.87
2019-05-21T15:54:06.558Z,99444.89
2019-05-21T15:56:35.993Z,99419.08
2019-05-21T15:59:05.791Z,99406.89
2019-05-21T16:01:35.237Z,99405.61
2019-05-21T16:04:04.649Z,99397.25
2019-05-21T16:06:34.059Z,99384.77
2019-05-21T16:09:05.410Z,99372.86
2019-05-21T16:11:34.839Z,99377.55
2019-05-21T16:14:04.326Z,99382.15
2019-05-21T16:16:33.738Z,99384.31
2019-05-21T16:19:03.304Z,99387.13
2019-05-21T16:21:32.793Z,99393.92
2019-05-21T16:24:02.411Z,99392.81
2019-05-21T16:26:31.841Z,99393.75
2019-05-21T16:29:01.350Z,99392.33
2019-05-21T16:31:30.919Z,99399.41
2019-05-21T16:34:00.347Z,99405.80
2019-05-21T16:36:29.806Z,99417.89
2019-05-21T16:38:59.315Z,99427.20
2019-05-21T16:41:43.611Z,99429.50
2019-05-21T16:44:00.006Z,99439.36
2019-05-21T16:46:29.548Z,99440.55
2019-05-21T16:48:58.961Z,99444.89
2019-05-21T16:51:28.421Z,99448.81
2019-05-21T16:53:58.074Z,99448.08
2019-05-21T16:56:27.546Z,99450.77
2019-05-21T16:58:57.024Z,99452.05
2019-05-21T17:01:26.635Z,99458.99
2019-05-21T17:04:00.041Z,99454.08
2019-05-21T17:06:27.361Z,99448.12
2019-05-21T17:08:56.886Z,99458.71
2019-05-21T17:11:26.455Z,99459.79
2019-05-21T17:13:55.917Z,99466.70
2019-05-21T17:16:25.545Z,99464.12
2019-05-21T17:18:55.011Z,99466.06
2019-05-21T17:21:24.446Z,99473.98
2019-05-21T17:23:53.952Z,99470.97
2019-05-21T17:26:23.465Z,99469.98
2019-05-21T17:28:52.900Z,99469.06
2019-05-21T17:31:22.362Z,99469.96
2019-05-21T17:33:51.938Z,99470.85
2019-05-21T17:36:21.473Z,99468.38
2019-05-21T17:38:50.945Z,99467.41
2019-05-21T17:41:20.511Z,99478.09
2019-05-21T17:43:50.063Z,99476.86
2019-05-21T17:46:19.498Z,99472.39
2019-05-21T17:48:49.037Z,99477.66
2019-05-21T17:54:12.260Z,99476.15
2019-05-21T17:56:41.718Z,99479.74
2019-05-21T17:59:11.251Z,99476.53
2019-05-21T18:03:09.774Z,99483.30
2019-05-21T18:05:37.822Z,99484.24
2019-05-21T18:08:07.443Z,99482.48
2019-05-21T18:10:37.366Z,99478.30
2019-05-21T18:13:06.996Z,99484.77
2019-05-21T18:15:36.496Z,99486.55
2019-05-21T18:18:06.026Z,99482.69
2019-05-21T18:20:35.594Z,99487.52
2019-05-21T18:23:06.009Z,99490.55
2019-05-21T18:25:35.429Z,99495.04
2019-05-21T18:28:04.894Z,99490.08
2019-05-21T18:30:34.335Z,99483.31
2019-05-21T18:33:04.751Z,99489.77
2019-05-21T18:35:34.237Z,99493.52
2019-05-21T18:38:03.742Z,99492.47
2019-05-21T18:40:33.155Z,99499.14
2019-05-21T18:43:02.632Z,99503.11
2019-05-21T18:45:33.631Z,99502.38
2019-05-21T18:48:03.126Z,99509.19
2019-05-21T18:50:36.665Z,99507.73
2019-05-21T18:53:04.148Z,99506.58
2019-05-21T18:55:33.656Z,99503.14
2019-05-21T18:58:03.131Z,99505.75
2019-05-21T19:00:32.633Z,99513.35
2019-05-21T19:03:02.240Z,99516.30
2019-05-21T19:05:31.776Z,99517.10
2019-05-21T19:08:01.198Z,99516.89
2019-05-21T19:10:30.622Z,99518.39
2019-05-21T19:13:00.990Z,99524.53
2019-05-21T19:15:30.816Z,99533.63
2019-05-21T19:18:00.304Z,99532.09
2019-05-21T19:20:29.724Z,99534.59
2019-05-21T19:22:59.158Z,99528.69
2019-05-21T19:25:28.737Z,99527.25
2019-05-21T19:27:58.313Z,99517.88
2019-05-21T19:30:28.165Z,99520.80
2019-05-21T19:32:57.727Z,99536.19
2019-05-21T19:35:27.279Z,99534.66
2019-05-21T19:37:56.745Z,99540.38
2019-05-21T19:40:26.390Z,99538.52
2019-05-21T19:42:55.870Z,99549.33
2019-05-21T19:45:25.323Z,99551.27
2019-05-21T19:47:54.940Z,99566.99
2019-05-21T19:50:24.403Z,99564.91
2019-05-21T19:52:53.860Z,99563.78
2019-05-21T19:55:23.803Z,99559.81
2019-05-21T19:57:53.265Z,99557.75
2019-05-21T20:00:24.298Z,99551.60
2019-05-21T20:02:53.834Z,99554.10
2019-05-21T20:05:23.437Z,99558.05
2019-05-21T20:07:52.864Z,99559.94
2019-05-21T20:10:22.588Z,99558.46
2019-05-21T20:12:52.116Z,99558.78
2019-05-21T20:15:21.592Z,99568.55
2019-05-21T20:18:05.013Z,99571.06
2019-05-21T20:20:23.101Z,99574.37
2019-05-21T20:22:52.830Z,99570.62
2019-05-21T20:25:22.530Z,99567.82
2019-05-21T20:27:52.784Z,99568.03
2019-05-21T20:30:23.168Z,99565.95
2019-05-21T20:32:53.474Z,99563.86
2019-05-21T20:35:25.486Z,99559.28
2019-05-21T20:37:54.988Z,99551.49
2019-05-21T20:40:25.827Z,99557.42
2019-05-21T20:42:55.543Z,99558.37
2019-05-21T20:45:25.359Z,99564.29
2019-05-21T20:47:55.940Z,99561.06
2019-05-21T20:50:26.358Z,99564.61
2019-05-21T20:52:55.808Z,99573.03
2019-05-21T20:55:25.290Z,99573.34
2019-05-21T20:57:55.190Z,99577.72
2019-05-21T21:00:49.014Z,99580.82
2019-05-21T21:03:18.461Z,99577.17
2019-05-21T21:05:48.067Z,99580.08
2019-05-21T21:08:17.608Z,99583.62
2019-05-21T21:10:47.030Z,99581.95
2019-05-21T21:13:16.730Z,99588.30
2019-05-21T21:15:46.357Z,99587.87
2019-05-21T21:18:15.894Z,99584.65
2019-05-21T21:20:45.312Z,99581.75
2019-05-21T21:23:16.818Z,99580.48
2019-05-21T21:25:46.287Z,99587.94
2019-05-21T21:28:15.721Z,99586.16
2019-05-21T21:30:45.328Z,99583.25
2019-05-21T21:33:15.132Z,99573.16
2019-05-21T21:35:44.570Z,99572.13
2019-05-21T21:38:17.437Z,99575.86
2019-05-21T21:40:46.921Z,99576.17
2019-05-21T21:43:16.334Z,99577.92
2019-05-21T21:45:45.772Z,99578.95
2019-05-21T21:48:16.203Z,99575.02
2019-05-21T21:50:46.417Z,99583.20
2019-05-21T21:53:15.846Z,99573.93
2019-05-21T21:55:45.453Z,99570.84
2019-05-21T21:58:14.917Z,99574.14
2019-05-21T22:01:31.531Z,99578.11
2019-05-21T22:04:02.244Z,99579.91
2019-05-21T22:06:32.482Z,99568.98
2019-05-21T22:09:04.524Z,99580.82
2019-05-21T22:11:34.329Z,99573.53
2019-05-21T22:14:04.503Z,99582.42
2019-05-21T22:16:34.935Z,99577.13
2019-05-21T22:19:06.669Z,99579.91
2019-05-21T22:21:37.021Z,99570.28
2019-05-21T22:24:07.672Z,99568.42
2019-05-21T22:26:37.131Z,99569.58
2019-05-21T22:29:06.666Z,99559.30
2019-05-21T22:31:36.267Z,99558.38
2019-05-21T22:34:05.845Z,99559.34
2019-05-21T22:36:35.284Z,99561.45
2019-05-21T22:39:07.541Z,99548.88
2019-05-21T22:41:37.114Z,99547.64
2019-05-21T22:44:06.664Z,99547.77
2019-05-21T22:46:36.134Z,99542.25
2019-05-21T22:49:05.587Z,99536.66
2019-05-21T22:51:35.021Z,99546.98
2019-05-21T22:54:04.569Z,99556.11
2019-05-21T22:56:34.052Z,99550.79
2019-05-21T22:59:04.456Z,99561.86
2019-05-21T23:01:34.858Z,99559.78
2019-05-21T23:04:04.536Z,99561.45
2019-05-21T23:06:33.980Z,99560.11
2019-05-21T23:09:04.012Z,99560.95
2019-05-21T23:11:33.532Z,99566.41
2019-05-21T23:14:03.048Z,99564.49
2019-05-21T23:16:32.692Z,99564.17
2019-05-21T23:19:02.709Z,99559.91
2019-05-21T23:21:33.897Z,99560.77
2019-05-21T23:24:05.934Z,99568.39
2019-05-21T23:26:35.031Z,99562.80
2019-05-21T23:29:05.639Z,99562.56
2019-05-21T23:31:35.209Z,99556.84
2019-05-21T23:34:05.503Z,99559.02
2019-05-21T23:36:36.046Z,99566.48
2019-05-21T23:39:08.738Z,99568.66
2019-05-21T23:41:38.689Z,99575.67
2019-05-21T23:44:08.204Z,99566.87
2019-05-21T23:46:38.200Z,99563.79
2019-05-21T23:49:07.723Z,99563.64
2019-05-21T23:51:37.272Z,99557.88
2019-05-21T23:54:06.934Z,99562.60
2019-05-21T23:56:36.612Z,99563.34
2019-05-21T23:59:06.920Z,99556.25
